createdAt,value
2022-12-26T00:02:28.153Z,18.77
2022-12-26T00:04:56.505Z,18.52
2022-12-26T00:07:26.323Z,19.70
2022-12-26T00:09:54.537Z,19.38
2022-12-26T00:12:24.896Z,22.77
2022-12-26T00:14:53.279Z,21.73
2022-12-26T00:17:21.532Z,19.38
2022-12-26T00:19:49.800Z,25.00
2022-12-26T00:22:19.895Z,20.23
2022-12-26T00:24:50.298Z,22.75
2022-12-26T00:27:20.931Z,21.92
2022-12-26T00:29:51.631Z,23.10
2022-12-26T00:32:19.966Z,19.52
2022-12-26T00:34:48.275Z,25.58
2022-12-26T00:37:16.692Z,21.25
2022-12-26T00:39:47.260Z,20.38
2022-12-26T00:42:18.821Z,19.98
2022-12-26T00:44:47.069Z,19.02
2022-12-26T00:47:15.683Z,24.02
2022-12-26T00:50:12.162Z,20.58
2022-12-26T00:52:34.755Z,22.35
2022-12-26T00:55:03.046Z,20.75
2022-12-26T00:57:32.605Z,16.20
2022-12-26T01:00:00.995Z,21.38
2022-12-26T01:02:40.832Z,22.33
2022-12-26T01:05:10.589Z,18.98
2022-12-26T01:08:22.617Z,21.75
2022-12-26T01:10:30.845Z,19.90
2022-12-26T01:13:01.216Z,22.63
2022-12-26T01:15:29.885Z,22.02
2022-12-26T01:17:59.983Z,20.77
2022-12-26T01:20:28.555Z,19.00
2022-12-26T01:22:56.851Z,21.40
2022-12-26T01:25:26.795Z,21.20
2022-12-26T01:27:54.991Z,17.95
2022-12-26T01:30:26.609Z,19.10
2022-12-26T01:32:54.981Z,20.70
2022-12-26T01:35:23.252Z,20.08
2022-12-26T01:37:53.699Z,18.90
2022-12-26T01:40:22.024Z,17.17
2022-12-26T01:42:50.484Z,17.40
2022-12-26T01:45:28.420Z,16.80
2022-12-26T01:48:00.291Z,16.95
2022-12-26T01:50:34.225Z,15.48
2022-12-26T01:53:04.237Z,15.57
2022-12-26T01:55:33.773Z,15.30
2022-12-26T01:58:04.298Z,16.92
2022-12-26T02:00:34.430Z,16.92
2022-12-26T02:03:20.424Z,16.02
2022-12-26T02:05:48.985Z,14.95
2022-12-26T02:08:24.510Z,21.42
2022-12-26T02:10:54.460Z,16.40
2022-12-26T02:13:23.928Z,14.10
2022-12-26T02:15:53.745Z,15.70
2022-12-26T02:18:22.008Z,15.05
2022-12-26T02:20:55.299Z,12.88
2022-12-26T02:23:36.137Z,17.05
2022-12-26T02:26:23.482Z,15.52
2022-12-26T02:28:58.856Z,15.10
2022-12-26T02:31:32.227Z,16.88
2022-12-26T02:34:04.827Z,15.68
2022-12-26T02:36:40.562Z,17.02
2022-12-26T02:39:44.006Z,15.65
2022-12-26T02:42:11.197Z,16.58
2022-12-26T02:45:01.105Z,18.08
2022-12-26T02:47:37.486Z,16.15
2022-12-26T02:50:27.240Z,14.73
2022-12-26T02:53:18.297Z,16.88
2022-12-26T02:56:14.603Z,15.70
2022-12-26T02:59:04.613Z,17.60
2022-12-26T03:01:53.420Z,17.27
2022-12-26T03:04:42.617Z,18.27
2022-12-26T03:07:32.497Z,20.55
2022-12-26T03:10:20.525Z,22.27
2022-12-26T03:13:08.552Z,19.08
2022-12-26T03:15:53.468Z,20.77
2022-12-26T03:18:56.937Z,22.13
2022-12-26T03:21:15.277Z,22.42
2022-12-26T03:23:46.622Z,20.08
2022-12-26T03:26:34.786Z,21.33
2022-12-26T03:29:19.140Z,20.17
2022-12-26T03:31:47.995Z,19.23
2022-12-26T03:34:18.500Z,20.27
2022-12-26T03:36:52.736Z,19.52
2022-12-26T03:39:44.989Z,17.10
2022-12-26T03:42:38.796Z,17.90
2022-12-26T03:45:30.530Z,18.15
2022-12-26T03:48:21.174Z,14.88
2022-12-26T03:51:10.562Z,20.67
2022-12-26T03:54:03.476Z,15.93
2022-12-26T03:56:52.726Z,15.38
2022-12-26T03:59:43.004Z,14.77
2022-12-26T04:02:31.680Z,13.88
2022-12-26T04:05:20.250Z,13.07
2022-12-26T04:08:18.521Z,11.18
2022-12-26T04:11:08.523Z,11.20
2022-12-26T04:13:57.520Z,12.93
2022-12-26T04:16:48.079Z,11.55
2022-12-26T04:19:25.414Z,11.30
2022-12-26T04:22:13.982Z,11.57
2022-12-26T04:25:01.932Z,10.60
2022-12-26T04:27:51.930Z,9.40
2022-12-26T04:30:38.326Z,9.38
2022-12-26T04:33:28.241Z,7.80
2022-12-26T04:36:18.203Z,7.63
2022-12-26T04:39:08.491Z,7.95
2022-12-26T04:41:54.821Z,8.90
2022-12-26T04:44:25.701Z,9.68
2022-12-26T04:46:54.844Z,7.72
2022-12-26T04:49:41.188Z,6.75
2022-12-26T04:52:12.472Z,10.27
2022-12-26T04:54:48.037Z,7.13
2022-12-26T04:57:18.669Z,7.65
2022-12-26T04:59:50.260Z,5.20
2022-12-26T05:02:36.320Z,5.65
2022-12-26T05:05:18.660Z,5.47
2022-12-26T05:08:04.971Z,4.72
2022-12-26T05:10:33.220Z,4.63
2022-12-26T05:13:01.500Z,4.85
2022-12-26T05:15:53.381Z,4.13
2022-12-26T05:18:53.935Z,5.90
2022-12-26T05:21:39.884Z,4.38
2022-12-26T05:24:28.416Z,3.72
2022-12-26T05:27:14.344Z,5.80
2022-12-26T05:29:45.203Z,6.00
2022-12-26T05:32:25.029Z,4.53
2022-12-26T05:34:53.265Z,3.50
2022-12-26T05:37:21.549Z,3.83
2022-12-26T05:39:49.921Z,6.57
2022-12-26T05:42:20.503Z,5.90
2022-12-26T05:44:48.967Z,4.35
2022-12-26T05:47:18.859Z,6.03
2022-12-26T05:49:49.225Z,4.90
2022-12-26T05:52:19.975Z,4.20
2022-12-26T05:54:48.185Z,6.38
2022-12-26T05:57:16.378Z,6.13
2022-12-26T05:59:45.109Z,5.78
2022-12-26T06:02:15.343Z,4.90
2022-12-26T06:04:45.028Z,4.07
2022-12-26T06:07:13.278Z,5.00
2022-12-26T06:09:41.569Z,6.80
2022-12-26T06:12:11.874Z,3.90
2022-12-26T06:14:42.015Z,4.03
2022-12-26T06:17:10.466Z,4.93
2022-12-26T06:19:43.117Z,4.45
2022-12-26T06:22:16.249Z,3.88
2022-12-26T06:24:44.849Z,5.63
2022-12-26T06:27:15.213Z,4.82
2022-12-26T06:29:45.698Z,3.60
2022-12-26T06:32:13.974Z,2.90
2022-12-26T06:34:42.198Z,5.68
2022-12-26T06:37:12.915Z,5.78
2022-12-26T06:39:42.505Z,5.20
2022-12-26T06:42:10.772Z,4.15
2022-12-26T06:44:39.580Z,3.88
2022-12-26T06:47:07.943Z,3.72
2022-12-26T06:49:36.283Z,3.33
2022-12-26T06:52:06.580Z,4.63
2022-12-26T06:54:35.532Z,8.38
2022-12-26T06:57:09.469Z,3.50
2022-12-26T06:59:37.841Z,5.68
2022-12-26T07:02:06.236Z,3.95
2022-12-26T07:04:36.880Z,5.57
2022-12-26T07:07:09.285Z,2.88
2022-12-26T07:09:37.587Z,3.90
2022-12-26T07:12:11.855Z,3.15
2022-12-26T07:14:40.286Z,4.93
2022-12-26T07:17:08.722Z,4.25
2022-12-26T07:19:37.068Z,4.00
2022-12-26T07:22:05.461Z,4.25
2022-12-26T07:24:37.533Z,3.00
2022-12-26T07:27:07.182Z,6.10
2022-12-26T07:29:35.895Z,5.60
2022-12-26T07:32:04.196Z,1.95
2022-12-26T07:34:32.671Z,2.35
2022-12-26T07:37:01.770Z,2.78
2022-12-26T07:39:30.027Z,4.32
2022-12-26T07:42:01.142Z,3.97
2022-12-26T07:44:31.200Z,6.63
2022-12-26T07:47:01.387Z,4.65
2022-12-26T07:49:29.714Z,6.68
2022-12-26T07:51:59.178Z,9.90
2022-12-26T07:54:31.159Z,7.53
2022-12-26T07:57:29.768Z,8.15
2022-12-26T07:59:53.659Z,6.13
2022-12-26T08:02:24.211Z,4.32
2022-12-26T08:04:52.703Z,4.00
2022-12-26T08:07:20.942Z,2.92
2022-12-26T08:09:49.737Z,5.35
2022-12-26T08:12:21.283Z,3.05
2022-12-26T08:14:52.072Z,4.05
2022-12-26T08:17:20.571Z,5.55
2022-12-26T08:19:48.898Z,3.28
2022-12-26T08:22:17.671Z,5.55
2022-12-26T08:24:46.146Z,2.25
2022-12-26T08:27:16.019Z,7.30
2022-12-26T08:29:44.678Z,3.30
2022-12-26T08:32:14.344Z,6.22
2022-12-26T08:34:42.556Z,4.75
2022-12-26T08:37:12.779Z,5.55
2022-12-26T08:39:41.082Z,5.57
2022-12-26T08:42:11.395Z,8.30
2022-12-26T08:44:43.834Z,4.70
2022-12-26T08:47:15.810Z,3.38
2022-12-26T08:49:44.190Z,4.07
2022-12-26T08:52:12.438Z,2.80
2022-12-26T08:54:42.821Z,5.20
2022-12-26T08:57:11.037Z,2.95
2022-12-26T08:59:39.647Z,7.85
2022-12-26T09:02:08.382Z,1.95
2022-12-26T09:04:38.230Z,6.20
2022-12-26T09:07:06.513Z,6.28
2022-12-26T09:09:38.840Z,8.45
2022-12-26T09:12:07.197Z,8.52
2022-12-26T09:14:37.732Z,4.82
2022-12-26T09:17:06.026Z,7.60
2022-12-26T09:19:34.448Z,9.85
2022-12-26T09:22:20.198Z,9.02
2022-12-26T09:24:49.132Z,8.02
2022-12-26T09:27:17.847Z,8.48
2022-12-26T09:29:46.168Z,10.38
2022-12-26T09:32:14.667Z,6.60
2022-12-26T09:34:43.060Z,5.45
2022-12-26T09:37:12.740Z,9.18
2022-12-26T09:39:43.216Z,4.82
2022-12-26T09:42:19.093Z,6.20
2022-12-26T09:44:50.413Z,2.63
2022-12-26T09:47:27.712Z,4.85
2022-12-26T09:49:57.344Z,2.53
2022-12-26T09:52:34.101Z,6.78
2022-12-26T09:55:05.449Z,4.07
2022-12-26T09:57:40.697Z,10.98
2022-12-26T10:00:09.677Z,5.38
2022-12-26T10:02:40.905Z,10.65
2022-12-26T10:05:09.978Z,10.75
2022-12-26T10:07:42.450Z,7.38
2022-12-26T10:10:12.128Z,5.97
2022-12-26T10:12:46.693Z,13.27
2022-12-26T10:15:20.698Z,5.78
2022-12-26T10:17:55.498Z,6.22
2022-12-26T10:20:30.081Z,7.97
2022-12-26T10:23:10.888Z,5.65
2022-12-26T10:25:44.001Z,4.07
2022-12-26T10:28:18.012Z,3.38
2022-12-26T10:30:47.195Z,3.97
2022-12-26T10:33:18.817Z,5.32
2022-12-26T10:35:49.499Z,4.53
2022-12-26T10:38:28.044Z,9.30
2022-12-26T10:40:58.232Z,11.95
2022-12-26T10:43:29.647Z,4.38
2022-12-26T10:46:04.853Z,5.50
2022-12-26T10:48:33.358Z,13.82
2022-12-26T10:51:03.791Z,9.43
2022-12-26T10:53:33.363Z,6.80
2022-12-26T10:56:02.485Z,6.88
2022-12-26T10:58:35.021Z,14.38
2022-12-26T11:01:25.467Z,4.05
2022-12-26T11:03:55.936Z,3.75
2022-12-26T11:06:28.139Z,7.75
2022-12-26T11:08:57.701Z,4.00
2022-12-26T11:11:27.065Z,2.28
2022-12-26T11:14:02.247Z,3.65
2022-12-26T11:16:36.915Z,3.33
2022-12-26T11:19:07.372Z,7.93
2022-12-26T11:21:36.079Z,5.10
2022-12-26T11:24:20.602Z,3.30
2022-12-26T11:26:51.646Z,4.38
2022-12-26T11:29:24.026Z,3.60
2022-12-26T11:31:54.735Z,3.40
2022-12-26T11:34:28.666Z,9.30
2022-12-26T11:36:57.028Z,2.70
2022-12-26T11:39:28.844Z,2.85
2022-12-26T11:41:57.373Z,3.05
2022-12-26T11:44:28.039Z,6.45
2022-12-26T11:46:59.236Z,2.75
2022-12-26T11:49:29.982Z,1.90
2022-12-26T11:52:00.062Z,3.22
2022-12-26T11:54:49.318Z,2.45
2022-12-26T11:57:22.232Z,3.90
2022-12-26T11:59:51.684Z,2.72
2022-12-26T12:02:30.017Z,4.38
2022-12-26T12:05:02.778Z,2.60
2022-12-26T12:07:41.437Z,1.80
2022-12-26T12:10:29.544Z,4.93
2022-12-26T12:12:59.798Z,3.47
2022-12-26T12:15:34.905Z,7.10
2022-12-26T12:18:07.377Z,4.97
2022-12-26T12:20:41.222Z,3.28
2022-12-26T12:23:27.134Z,3.45
2022-12-26T12:26:04.021Z,2.97
2022-12-26T12:28:37.177Z,3.30
2022-12-26T12:31:09.554Z,2.30
2022-12-26T12:33:44.750Z,3.42
2022-12-26T12:36:13.989Z,1.73
2022-12-26T12:38:57.066Z,3.53
2022-12-26T12:41:34.866Z,2.25
2022-12-26T12:44:05.795Z,3.58
2022-12-26T12:46:37.357Z,2.45
2022-12-26T12:49:18.871Z,4.88
2022-12-26T12:51:51.994Z,2.85
2022-12-26T12:54:50.916Z,1.00
2022-12-26T12:57:23.803Z,2.08
2022-12-26T12:59:57.722Z,7.05
2022-12-26T13:02:30.878Z,0.50
2022-12-26T13:05:04.171Z,4.93
2022-12-26T13:07:35.961Z,5.30
2022-12-26T13:10:06.781Z,4.57
2022-12-26T13:12:43.083Z,4.00
2022-12-26T13:15:21.673Z,2.85
2022-12-26T13:17:52.191Z,1.88
2022-12-26T13:20:23.725Z,2.38
2022-12-26T13:23:15.901Z,2.80
2022-12-26T13:25:47.926Z,3.78
2022-12-26T13:28:19.694Z,3.30
2022-12-26T13:30:54.184Z,2.75
2022-12-26T13:33:22.965Z,4.28
2022-12-26T13:35:55.841Z,1.40
2022-12-26T13:38:24.970Z,2.72
2022-12-26T13:40:57.981Z,3.70
2022-12-26T13:43:45.629Z,3.05
2022-12-26T13:46:28.789Z,2.33
2022-12-26T13:49:02.511Z,3.70
2022-12-26T13:51:57.981Z,2.47
2022-12-26T13:54:29.193Z,2.70
2022-12-26T13:57:16.168Z,4.60
2022-12-26T13:59:55.434Z,2.75
2022-12-26T14:03:15.442Z,1.38
2022-12-26T14:05:38.181Z,2.40
2022-12-26T14:08:10.781Z,2.13
2022-12-26T14:10:44.183Z,3.10
2022-12-26T14:13:27.699Z,3.53
2022-12-26T14:16:02.962Z,1.85
2022-12-26T14:18:39.645Z,4.32
2022-12-26T14:21:21.608Z,2.63
2022-12-26T14:23:54.377Z,4.05
2022-12-26T14:26:32.143Z,1.45
2022-12-26T14:29:07.888Z,0.95
2022-12-26T14:31:41.626Z,4.60
2022-12-26T14:34:17.002Z,5.25
2022-12-26T14:36:49.346Z,4.78
2022-12-26T14:39:24.114Z,2.30
2022-12-26T14:42:34.339Z,2.00
2022-12-26T14:45:03.542Z,4.07
2022-12-26T14:47:41.674Z,4.45
2022-12-26T14:50:29.667Z,4.05
2022-12-26T14:53:18.086Z,4.45
2022-12-26T14:55:52.248Z,2.38
2022-12-26T14:58:25.933Z,2.03
2022-12-26T15:00:54.893Z,2.42
2022-12-26T15:03:35.030Z,2.67
2022-12-26T15:06:19.540Z,0.93
2022-12-26T15:08:56.395Z,4.75
2022-12-26T15:11:36.587Z,5.40
2022-12-26T15:14:23.340Z,3.20
2022-12-26T15:16:58.860Z,4.40
2022-12-26T15:19:45.673Z,4.18
2022-12-26T15:22:30.414Z,1.55
2022-12-26T15:25:21.124Z,4.40
2022-12-26T15:28:15.781Z,3.58
2022-12-26T15:30:53.693Z,2.35
2022-12-26T15:33:25.315Z,7.95
2022-12-26T15:36:02.970Z,11.45
2022-12-26T15:38:41.300Z,11.60
2022-12-26T15:41:16.920Z,9.98
2022-12-26T15:43:51.142Z,6.00
2022-12-26T15:46:22.094Z,7.05
2022-12-26T15:48:57.899Z,8.40
2022-12-26T15:51:32.364Z,7.22
2022-12-26T15:54:07.977Z,7.03
2022-12-26T15:56:46.573Z,8.52
2022-12-26T15:59:32.551Z,7.60
2022-12-26T16:02:01.507Z,10.15
2022-12-26T16:04:32.671Z,8.18
2022-12-26T16:07:08.275Z,8.60
2022-12-26T16:09:44.378Z,6.75
2022-12-26T16:12:23.249Z,3.80
2022-12-26T16:14:52.250Z,5.60
2022-12-26T16:17:22.481Z,9.07
2022-12-26T16:19:54.137Z,9.25
2022-12-26T16:22:43.594Z,9.35
2022-12-26T16:25:16.032Z,5.75
2022-12-26T16:27:45.703Z,9.13
2022-12-26T16:30:18.820Z,6.10
2022-12-26T16:32:50.315Z,9.45
2022-12-26T16:35:21.035Z,7.20
2022-12-26T16:37:50.462Z,5.78
2022-12-26T16:40:22.316Z,7.00
2022-12-26T16:42:58.398Z,5.32
2022-12-26T16:45:27.837Z,7.57
2022-12-26T16:47:56.464Z,7.65
2022-12-26T16:50:25.946Z,7.45
2022-12-26T16:53:04.504Z,7.63
2022-12-26T16:55:39.176Z,12.93
2022-12-26T16:58:14.411Z,8.18
2022-12-26T17:00:46.938Z,6.43
2022-12-26T17:03:32.599Z,5.82
2022-12-26T17:06:01.056Z,5.88
2022-12-26T17:08:29.311Z,5.60
2022-12-26T17:10:59.192Z,8.45
2022-12-26T17:13:28.497Z,6.18
2022-12-26T17:15:58.341Z,10.23
2022-12-26T17:18:50.728Z,9.20
2022-12-26T17:21:24.354Z,13.50
2022-12-26T17:24:11.619Z,9.77
2022-12-26T17:26:43.506Z,7.63
2022-12-26T17:29:33.889Z,4.53
2022-12-26T17:32:02.280Z,9.23
2022-12-26T17:34:31.717Z,7.15
2022-12-26T17:37:20.393Z,5.85
2022-12-26T17:39:57.801Z,6.18
2022-12-26T17:42:30.667Z,10.02
2022-12-26T17:44:59.973Z,4.95
2022-12-26T17:47:33.490Z,6.38
2022-12-26T17:50:01.852Z,2.50
2022-12-26T17:52:31.104Z,7.35
2022-12-26T17:55:01.810Z,3.33
2022-12-26T17:57:31.520Z,4.25
2022-12-26T17:59:59.974Z,5.85
2022-12-26T18:02:29.745Z,7.55
2022-12-26T18:05:00.806Z,5.55
2022-12-26T18:07:32.967Z,6.75
2022-12-26T18:10:01.515Z,6.47
2022-12-26T18:12:33.563Z,6.40
2022-12-26T18:15:03.172Z,6.68
2022-12-26T18:17:35.696Z,8.15
2022-12-26T18:20:05.457Z,5.25
2022-12-26T18:22:37.537Z,7.80
2022-12-26T18:25:12.200Z,18.30
2022-12-26T18:27:43.399Z,6.03
2022-12-26T18:30:18.789Z,4.95
2022-12-26T18:32:49.920Z,8.38
2022-12-26T18:35:18.816Z,5.80
2022-12-26T18:37:50.067Z,6.45
2022-12-26T18:40:25.628Z,9.73
2022-12-26T18:42:57.370Z,4.20
2022-12-26T18:45:26.087Z,3.65
2022-12-26T18:47:57.069Z,4.70
2022-12-26T18:50:25.798Z,8.90
2022-12-26T18:52:54.335Z,5.95
2022-12-26T18:55:28.652Z,5.53
2022-12-26T18:57:58.481Z,9.25
2022-12-26T19:00:27.242Z,6.63
2022-12-26T19:02:56.225Z,4.80
2022-12-26T19:05:26.164Z,5.45
2022-12-26T19:07:55.168Z,6.55
2022-12-26T19:10:27.432Z,8.60
2022-12-26T19:13:06.062Z,7.80
2022-12-26T19:15:40.265Z,8.25
2022-12-26T19:18:11.628Z,7.88
2022-12-26T19:20:44.065Z,5.25
2022-12-26T19:23:17.804Z,5.25
2022-12-26T19:25:49.277Z,6.30
2022-12-26T19:28:20.360Z,9.23
2022-12-26T19:30:49.976Z,7.38
2022-12-26T19:33:20.891Z,7.07
2022-12-26T19:35:57.940Z,16.00
2022-12-26T19:38:28.282Z,10.02
2022-12-26T19:41:04.553Z,3.35
2022-12-26T19:43:35.397Z,5.97
2022-12-26T19:46:23.028Z,6.53
2022-12-26T19:48:56.587Z,5.85
2022-12-26T19:51:31.369Z,3.13
2022-12-26T19:54:05.717Z,6.28
2022-12-26T19:56:41.871Z,5.85
2022-12-26T19:59:16.036Z,5.35
2022-12-26T20:01:52.296Z,6.45
2022-12-26T20:04:26.390Z,3.15
2022-12-26T20:06:59.764Z,4.68
2022-12-26T20:09:28.713Z,4.47
2022-12-26T20:12:03.021Z,7.22
2022-12-26T20:14:40.899Z,3.95
2022-12-26T20:17:12.309Z,7.47
2022-12-26T20:19:43.946Z,6.75
2022-12-26T20:22:14.977Z,9.18
2022-12-26T20:24:43.552Z,4.60
2022-12-26T20:27:13.609Z,9.80
2022-12-26T20:29:44.725Z,3.58
2022-12-26T20:32:15.063Z,4.15
2022-12-26T20:34:48.707Z,3.75
2022-12-26T20:37:18.846Z,6.45
2022-12-26T20:39:47.214Z,4.10
2022-12-26T20:42:18.417Z,3.13
2022-12-26T20:44:46.870Z,6.38
2022-12-26T20:47:17.732Z,4.45
2022-12-26T20:49:46.208Z,6.57
2022-12-26T20:52:16.714Z,4.63
2022-12-26T20:54:47.940Z,3.08
2022-12-26T20:57:18.475Z,4.45
2022-12-26T20:59:47.066Z,7.47
2022-12-26T21:02:21.254Z,5.18
2022-12-26T21:04:49.762Z,5.85
2022-12-26T21:07:21.244Z,3.42
2022-12-26T21:09:53.231Z,2.78
2022-12-26T21:12:35.411Z,2.08
2022-12-26T21:15:04.033Z,4.18
2022-12-26T21:17:36.960Z,7.28
2022-12-26T21:20:10.439Z,5.10
2022-12-26T21:22:40.574Z,7.35
2022-12-26T21:25:09.421Z,7.28
2022-12-26T21:27:42.712Z,11.27
2022-12-26T21:30:11.739Z,6.97
2022-12-26T21:32:41.494Z,5.57
2022-12-26T21:35:10.044Z,6.25
2022-12-26T21:37:51.436Z,3.35
2022-12-26T21:40:20.637Z,4.05
2022-12-26T21:42:48.876Z,4.95
2022-12-26T21:45:19.842Z,3.97
2022-12-26T21:47:51.916Z,4.07
2022-12-26T21:50:20.211Z,5.20
2022-12-26T21:52:53.774Z,3.53
2022-12-26T21:55:27.432Z,5.22
2022-12-26T21:57:57.618Z,6.38
2022-12-26T22:00:26.245Z,6.05
2022-12-26T22:03:13.761Z,2.72
2022-12-26T22:05:42.752Z,4.47
2022-12-26T22:08:12.178Z,6.20
2022-12-26T22:10:58.559Z,8.93
2022-12-26T22:13:29.083Z,3.42
2022-12-26T22:16:07.179Z,4.25
2022-12-26T22:18:38.550Z,2.70
2022-12-26T22:21:08.388Z,7.88
2022-12-26T22:23:37.232Z,8.73
2022-12-26T22:26:07.569Z,6.60
2022-12-26T22:28:39.567Z,5.63
2022-12-26T22:31:10.353Z,6.65
2022-12-26T22:33:42.252Z,3.67
2022-12-26T22:36:13.325Z,6.15
2022-12-26T22:38:41.545Z,6.63
2022-12-26T22:41:09.823Z,7.75
2022-12-26T22:43:38.193Z,6.78
2022-12-26T22:46:07.231Z,6.63
2022-12-26T22:48:35.639Z,3.50
2022-12-26T22:51:05.369Z,10.18
2022-12-26T22:53:33.668Z,7.85
2022-12-26T22:56:03.232Z,13.75
2022-12-26T22:58:32.151Z,12.13
2022-12-26T23:01:00.768Z,3.38
2022-12-26T23:03:31.789Z,8.35
2022-12-26T23:06:00.466Z,5.65
2022-12-26T23:08:30.646Z,6.90
2022-12-26T23:10:59.988Z,8.00
2022-12-26T23:13:28.641Z,3.97
2022-12-26T23:15:59.841Z,8.52
2022-12-26T23:18:51.896Z,4.30
2022-12-26T23:21:41.381Z,6.20
2022-12-26T23:24:13.508Z,15.02
2022-12-26T23:26:42.347Z,6.50
2022-12-26T23:29:32.270Z,9.50
2022-12-26T23:32:00.579Z,7.63
2022-12-26T23:34:29.378Z,8.52
2022-12-26T23:36:57.846Z,4.80
2022-12-26T23:39:27.495Z,7.03
2022-12-26T23:41:56.148Z,3.38
2022-12-26T23:44:26.833Z,10.48
2022-12-26T23:46:55.303Z,2.17
2022-12-26T23:49:23.654Z,5.30
2022-12-26T23:51:52.024Z,9.32
2022-12-26T23:54:20.261Z,7.20
2022-12-26T23:56:49.897Z,3.80
2022-12-26T23:59:19.763Z,3.45
